KGBK

Magnolia

Magnolia, Louisiana, USA
METAR KGBK 140735Z AUTO 29023G32KT 8SM CLR 20/14 A2984 RMK A01
Observed Flight Rules
Dec-14 @ 07:35 UTC (43 minutes ago) Visual Flight Rules
Wind Visibility Clouds
290° at 23 knots
 Gusting to 32 knots
8 miles
  • Clear skies
Temperatures Readings
Current 20°C / 68°F
Dewpoint 14°C / 57°F
Humidity 69%
Altimeter 29.84" Hg
Pressure 1010 hPa
Elevation 59
METAR KGBK 140735Z AUTO 29023G32KT 8SM CLR 20/14 A2984 RMK A01
Observed Flight Rules
Dec-14 @ 07:35 UTC
(43 minutes ago)
VFR
Wind Visibility
290° at 23 knots
 Gusting to 32 knots
8 miles
Clouds
  • Clear skies
Temperature Dewpoint
20°C / 68°F 14°C / 57°F
Humidity Altimeter Pressure
69% 29.84" Hg 1010 hPa